<?xml version="1.0" encoding="UTF-8" standalone="no" ?>
<gpx xmlns="http://www.topografix.com/GPX/1/1" xmlns:xsi="http://www.w3.org/2001/XMLSchema-instance" xsi:schemaLocation="http://www.topografix.com/GPX/1/1 http://www.topografix.com/GPX/1/1/gpx.xsd" version="1.1" creator="VisuGPX - https://www.visugpx.com">
  <metadata>
    <name>Pailharés Ardèche boucle autour du village</name>
    <desc><![CDATA[Pailharés Ardèche boucle autour du village 10 août 2018]]></desc>
  </metadata>
  <trk>
    <name><![CDATA[2018-08-10 15:29:34]]></name>
    <trkseg>
      <trkpt lat="45.07881" lon="4.56559">
        <ele>689.88</ele>
        <time>2018-08-10T10:14:06Z</time>
      </trkpt>
      <trkpt lat="45.07881" lon="4.56559">
        <ele>689.88</ele>
        <time>2018-08-10T10:14:07Z</time>
      </trkpt>
      <trkpt lat="45.07878" lon="4.56559">
        <ele>697.57</ele>
        <time>2018-08-10T10:14:13Z</time>
      </trkpt>
      <trkpt lat="45.07879" lon="4.5656">
        <ele>697.57</ele>
        <time>2018-08-10T10:14:17Z</time>
      </trkpt>
      <trkpt lat="45.07875" lon="4.56559">
        <ele>696.61</ele>
        <time>2018-08-10T10:14:39Z</time>
      </trkpt>
      <trkpt lat="45.07871" lon="4.56557">
        <ele>696.61</ele>
        <time>2018-08-10T10:14:52Z</time>
      </trkpt>
      <trkpt lat="45.07866" lon="4.56553">
        <ele>696.61</ele>
        <time>2018-08-10T10:15:07Z</time>
      </trkpt>
      <trkpt lat="45.07866" lon="4.56538">
        <ele>698.05</ele>
        <time>2018-08-10T10:15:23Z</time>
      </trkpt>
      <trkpt lat="45.07868" lon="4.56546">
        <ele>697.09</ele>
        <time>2018-08-10T10:15:39Z</time>
      </trkpt>
      <trkpt lat="45.07867" lon="4.56556">
        <ele>696.61</ele>
        <time>2018-08-10T10:15:54Z</time>
      </trkpt>
      <trkpt lat="45.07855" lon="4.56566">
        <ele>696.13</ele>
        <time>2018-08-10T10:16:09Z</time>
      </trkpt>
      <trkpt lat="45.07844" lon="4.56572">
        <ele>696.13</ele>
        <time>2018-08-10T10:16:23Z</time>
      </trkpt>
      <trkpt lat="45.07837" lon="4.56575">
        <ele>695.17</ele>
        <time>2018-08-10T10:16:37Z</time>
      </trkpt>
      <trkpt lat="45.07831" lon="4.56568">
        <ele>694.69</ele>
        <time>2018-08-10T10:16:48Z</time>
      </trkpt>
      <trkpt lat="45.07826" lon="4.56557">
        <ele>693.25</ele>
        <time>2018-08-10T10:17:03Z</time>
      </trkpt>
      <trkpt lat="45.07822" lon="4.56545">
        <ele>692.77</ele>
        <time>2018-08-10T10:17:17Z</time>
      </trkpt>
      <trkpt lat="45.07823" lon="4.56538">
        <ele>692.29</ele>
        <time>2018-08-10T10:17:22Z</time>
      </trkpt>
      <trkpt lat="45.07817" lon="4.56517">
        <ele>689.88</ele>
        <time>2018-08-10T10:17:40Z</time>
      </trkpt>
      <trkpt lat="45.07817" lon="4.56513">
        <ele>689.4</ele>
        <time>2018-08-10T10:18:00Z</time>
      </trkpt>
      <trkpt lat="45.07808" lon="4.56515">
        <ele>687.48</ele>
        <time>2018-08-10T10:18:16Z</time>
      </trkpt>
      <trkpt lat="45.07792" lon="4.56521">
        <ele>684.6</ele>
        <time>2018-08-10T10:18:37Z</time>
      </trkpt>
      <trkpt lat="45.07785" lon="4.56524">
        <ele>683.15</ele>
        <time>2018-08-10T10:18:55Z</time>
      </trkpt>
      <trkpt lat="45.07776" lon="4.56528">
        <ele>681.71</ele>
        <time>2018-08-10T10:19:08Z</time>
      </trkpt>
      <trkpt lat="45.07753" lon="4.56532">
        <ele>680.27</ele>
        <time>2018-08-10T10:19:30Z</time>
      </trkpt>
      <trkpt lat="45.07734" lon="4.56535">
        <ele>678.83</ele>
        <time>2018-08-10T10:19:48Z</time>
      </trkpt>
      <trkpt lat="45.07718" lon="4.56538">
        <ele>678.83</ele>
        <time>2018-08-10T10:20:05Z</time>
      </trkpt>
      <trkpt lat="45.07706" lon="4.56542">
        <ele>676.91</ele>
        <time>2018-08-10T10:20:22Z</time>
      </trkpt>
      <trkpt lat="45.07702" lon="4.56544">
        <ele>676.91</ele>
        <time>2018-08-10T10:20:41Z</time>
      </trkpt>
      <trkpt lat="45.0769" lon="4.5655">
        <ele>675.46</ele>
        <time>2018-08-10T10:20:57Z</time>
      </trkpt>
      <trkpt lat="45.07683" lon="4.56559">
        <ele>674.98</ele>
        <time>2018-08-10T10:21:07Z</time>
      </trkpt>
      <trkpt lat="45.07677" lon="4.56569">
        <ele>674.5</ele>
        <time>2018-08-10T10:21:16Z</time>
      </trkpt>
      <trkpt lat="45.07666" lon="4.56583">
        <ele>672.58</ele>
        <time>2018-08-10T10:21:32Z</time>
      </trkpt>
      <trkpt lat="45.07659" lon="4.56602">
        <ele>671.14</ele>
        <time>2018-08-10T10:21:48Z</time>
      </trkpt>
      <trkpt lat="45.07653" lon="4.56622">
        <ele>669.7</ele>
        <time>2018-08-10T10:22:04Z</time>
      </trkpt>
      <trkpt lat="45.07648" lon="4.56638">
        <ele>667.77</ele>
        <time>2018-08-10T10:22:20Z</time>
      </trkpt>
      <trkpt lat="45.07645" lon="4.56653">
        <ele>666.33</ele>
        <time>2018-08-10T10:22:36Z</time>
      </trkpt>
      <trkpt lat="45.07638" lon="4.56674">
        <ele>664.41</ele>
        <time>2018-08-10T10:22:54Z</time>
      </trkpt>
      <trkpt lat="45.07635" lon="4.56684">
        <ele>662.97</ele>
        <time>2018-08-10T10:23:02Z</time>
      </trkpt>
      <trkpt lat="45.07628" lon="4.56701">
        <ele>661.04</ele>
        <time>2018-08-10T10:23:19Z</time>
      </trkpt>
      <trkpt lat="45.07627" lon="4.56704">
        <ele>660.56</ele>
        <time>2018-08-10T10:23:22Z</time>
      </trkpt>
      <trkpt lat="45.07621" lon="4.56726">
        <ele>657.2</ele>
        <time>2018-08-10T10:23:41Z</time>
      </trkpt>
      <trkpt lat="45.07619" lon="4.56744">
        <ele>654.31</ele>
        <time>2018-08-10T10:23:56Z</time>
      </trkpt>
      <trkpt lat="45.07616" lon="4.5676">
        <ele>652.39</ele>
        <time>2018-08-10T10:24:11Z</time>
      </trkpt>
      <trkpt lat="45.07617" lon="4.56772">
        <ele>650.47</ele>
        <time>2018-08-10T10:24:29Z</time>
      </trkpt>
      <trkpt lat="45.07615" lon="4.56774">
        <ele>650.47</ele>
        <time>2018-08-10T10:24:42Z</time>
      </trkpt>
      <trkpt lat="45.07615" lon="4.5677">
        <ele>650.47</ele>
        <time>2018-08-10T10:25:12Z</time>
      </trkpt>
      <trkpt lat="45.07616" lon="4.56776">
        <ele>649.99</ele>
        <time>2018-08-10T10:25:18Z</time>
      </trkpt>
      <trkpt lat="45.07618" lon="4.56788">
        <ele>649.51</ele>
        <time>2018-08-10T10:25:36Z</time>
      </trkpt>
      <trkpt lat="45.07618" lon="4.56789">
        <ele>649.51</ele>
        <time>2018-08-10T10:25:41Z</time>
      </trkpt>
      <trkpt lat="45.07618" lon="4.56792">
        <ele>649.51</ele>
        <time>2018-08-10T10:25:43Z</time>
      </trkpt>
      <trkpt lat="45.07622" lon="4.56803">
        <ele>648.55</ele>
        <time>2018-08-10T10:25:50Z</time>
      </trkpt>
      <trkpt lat="45.07629" lon="4.56824">
        <ele>646.62</ele>
        <time>2018-08-10T10:26:06Z</time>
      </trkpt>
      <trkpt lat="45.07632" lon="4.56835">
        <ele>645.18</ele>
        <time>2018-08-10T10:26:22Z</time>
      </trkpt>
      <trkpt lat="45.07635" lon="4.56837">
        <ele>645.18</ele>
        <time>2018-08-10T10:26:53Z</time>
      </trkpt>
      <trkpt lat="45.07633" lon="4.56842">
        <ele>645.18</ele>
        <time>2018-08-10T10:27:07Z</time>
      </trkpt>
      <trkpt lat="45.07634" lon="4.56845">
        <ele>644.22</ele>
        <time>2018-08-10T10:27:24Z</time>
      </trkpt>
      <trkpt lat="45.07633" lon="4.56844">
        <ele>644.22</ele>
        <time>2018-08-10T10:27:51Z</time>
      </trkpt>
      <trkpt lat="45.07634" lon="4.56845">
        <ele>644.22</ele>
        <time>2018-08-10T10:28:18Z</time>
      </trkpt>
      <trkpt lat="45.07633" lon="4.56845">
        <ele>644.22</ele>
        <time>2018-08-10T10:28:39Z</time>
      </trkpt>
      <trkpt lat="45.07634" lon="4.56848">
        <ele>644.22</ele>
        <time>2018-08-10T10:28:59Z</time>
      </trkpt>
      <trkpt lat="45.07635" lon="4.56849">
        <ele>644.22</ele>
        <time>2018-08-10T10:29:00Z</time>
      </trkpt>
      <trkpt lat="45.07638" lon="4.56858">
        <ele>643.74</ele>
        <time>2018-08-10T10:29:06Z</time>
      </trkpt>
      <trkpt lat="45.07645" lon="4.56877">
        <ele>641.34</ele>
        <time>2018-08-10T10:29:22Z</time>
      </trkpt>
      <trkpt lat="45.07646" lon="4.56885">
        <ele>640.86</ele>
        <time>2018-08-10T10:29:40Z</time>
      </trkpt>
      <trkpt lat="45.07647" lon="4.56902">
        <ele>639.41</ele>
        <time>2018-08-10T10:29:50Z</time>
      </trkpt>
      <trkpt lat="45.07652" lon="4.56926">
        <ele>637.97</ele>
        <time>2018-08-10T10:30:06Z</time>
      </trkpt>
      <trkpt lat="45.07664" lon="4.56951">
        <ele>637.01</ele>
        <time>2018-08-10T10:30:24Z</time>
      </trkpt>
      <trkpt lat="45.07667" lon="4.5696">
        <ele>636.05</ele>
        <time>2018-08-10T10:30:40Z</time>
      </trkpt>
      <trkpt lat="45.0767" lon="4.56963">
        <ele>636.05</ele>
        <time>2018-08-10T10:30:54Z</time>
      </trkpt>
      <trkpt lat="45.07674" lon="4.5697">
        <ele>636.05</ele>
        <time>2018-08-10T10:31:07Z</time>
      </trkpt>
      <trkpt lat="45.07673" lon="4.5697">
        <ele>635.57</ele>
        <time>2018-08-10T10:31:19Z</time>
      </trkpt>
      <trkpt lat="45.07674" lon="4.56971">
        <ele>635.57</ele>
        <time>2018-08-10T10:31:21Z</time>
      </trkpt>
      <trkpt lat="45.07678" lon="4.56993">
        <ele>634.61</ele>
        <time>2018-08-10T10:31:38Z</time>
      </trkpt>
      <trkpt lat="45.07675" lon="4.57005">
        <ele>632.68</ele>
        <time>2018-08-10T10:31:49Z</time>
      </trkpt>
      <trkpt lat="45.07668" lon="4.57023">
        <ele>631.72</ele>
        <time>2018-08-10T10:32:04Z</time>
      </trkpt>
      <trkpt lat="45.07658" lon="4.57046">
        <ele>629.8</ele>
        <time>2018-08-10T10:32:22Z</time>
      </trkpt>
      <trkpt lat="45.07649" lon="4.57065">
        <ele>628.36</ele>
        <time>2018-08-10T10:32:38Z</time>
      </trkpt>
      <trkpt lat="45.07649" lon="4.57065">
        <ele>628.36</ele>
        <time>2018-08-10T10:32:40Z</time>
      </trkpt>
      <trkpt lat="45.07646" lon="4.57073">
        <ele>628.36</ele>
        <time>2018-08-10T10:32:48Z</time>
      </trkpt>
      <trkpt lat="45.0764" lon="4.57084">
        <ele>627.4</ele>
        <time>2018-08-10T10:32:58Z</time>
      </trkpt>
      <trkpt lat="45.07633" lon="4.57107">
        <ele>625.47</ele>
        <time>2018-08-10T10:33:17Z</time>
      </trkpt>
      <trkpt lat="45.07633" lon="4.5711">
        <ele>624.99</ele>
        <time>2018-08-10T10:33:20Z</time>
      </trkpt>
      <trkpt lat="45.07631" lon="4.57119">
        <ele>623.55</ele>
        <time>2018-08-10T10:33:27Z</time>
      </trkpt>
      <trkpt lat="45.07627" lon="4.5714">
        <ele>621.63</ele>
        <time>2018-08-10T10:33:45Z</time>
      </trkpt>
      <trkpt lat="45.07624" lon="4.57158">
        <ele>618.75</ele>
        <time>2018-08-10T10:34:02Z</time>
      </trkpt>
      <trkpt lat="45.07619" lon="4.57174">
        <ele>616.34</ele>
        <time>2018-08-10T10:34:17Z</time>
      </trkpt>
      <trkpt lat="45.07619" lon="4.57175">
        <ele>616.34</ele>
        <time>2018-08-10T10:34:34Z</time>
      </trkpt>
      <trkpt lat="45.07621" lon="4.57178">
        <ele>616.34</ele>
        <time>2018-08-10T10:34:48Z</time>
      </trkpt>
      <trkpt lat="45.07622" lon="4.57184">
        <ele>616.34</ele>
        <time>2018-08-10T10:34:52Z</time>
      </trkpt>
      <trkpt lat="45.07622" lon="4.57187">
        <ele>614.9</ele>
        <time>2018-08-10T10:34:55Z</time>
      </trkpt>
      <trkpt lat="45.07622" lon="4.57189">
        <ele>616.34</ele>
        <time>2018-08-10T10:34:57Z</time>
      </trkpt>
      <trkpt lat="45.07621" lon="4.57188">
        <ele>614.9</ele>
        <time>2018-08-10T10:35:19Z</time>
      </trkpt>
      <trkpt lat="45.07624" lon="4.57202">
        <ele>613.94</ele>
        <time>2018-08-10T10:35:40Z</time>
      </trkpt>
      <trkpt lat="45.07627" lon="4.57227">
        <ele>610.09</ele>
        <time>2018-08-10T10:35:56Z</time>
      </trkpt>
      <trkpt lat="45.07631" lon="4.57254">
        <ele>606.73</ele>
        <time>2018-08-10T10:36:15Z</time>
      </trkpt>
      <trkpt lat="45.07633" lon="4.57259">
        <ele>605.77</ele>
        <time>2018-08-10T10:36:19Z</time>
      </trkpt>
      <trkpt lat="45.07647" lon="4.57284">
        <ele>602.4</ele>
        <time>2018-08-10T10:36:40Z</time>
      </trkpt>
      <trkpt lat="45.07658" lon="4.57303">
        <ele>600</ele>
        <time>2018-08-10T10:37:00Z</time>
      </trkpt>
      <trkpt lat="45.07668" lon="4.57318">
        <ele>597.12</ele>
        <time>2018-08-10T10:37:18Z</time>
      </trkpt>
      <trkpt lat="45.0767" lon="4.57322">
        <ele>597.12</ele>
        <time>2018-08-10T10:37:21Z</time>
      </trkpt>
      <trkpt lat="45.07682" lon="4.57335">
        <ele>593.75</ele>
        <time>2018-08-10T10:37:39Z</time>
      </trkpt>
      <trkpt lat="45.0769" lon="4.57342">
        <ele>592.31</ele>
        <time>2018-08-10T10:37:49Z</time>
      </trkpt>
      <trkpt lat="45.07697" lon="4.57358">
        <ele>590.39</ele>
        <time>2018-08-10T10:38:03Z</time>
      </trkpt>
      <trkpt lat="45.07699" lon="4.57363">
        <ele>589.91</ele>
        <time>2018-08-10T10:38:07Z</time>
      </trkpt>
      <trkpt lat="45.07703" lon="4.57384">
        <ele>587.02</ele>
        <time>2018-08-10T10:38:24Z</time>
      </trkpt>
      <trkpt lat="45.07704" lon="4.57393">
        <ele>586.06</ele>
        <time>2018-08-10T10:38:39Z</time>
      </trkpt>
      <trkpt lat="45.07707" lon="4.57414">
        <ele>584.14</ele>
        <time>2018-08-10T10:38:54Z</time>
      </trkpt>
      <trkpt lat="45.07707" lon="4.57421">
        <ele>582.7</ele>
        <time>2018-08-10T10:38:59Z</time>
      </trkpt>
      <trkpt lat="45.07706" lon="4.57441">
        <ele>581.25</ele>
        <time>2018-08-10T10:39:14Z</time>
      </trkpt>
      <trkpt lat="45.07703" lon="4.57463">
        <ele>579.33</ele>
        <time>2018-08-10T10:39:32Z</time>
      </trkpt>
      <trkpt lat="45.07699" lon="4.57483">
        <ele>575.97</ele>
        <time>2018-08-10T10:39:48Z</time>
      </trkpt>
      <trkpt lat="45.07696" lon="4.57506">
        <ele>572.6</ele>
        <time>2018-08-10T10:40:07Z</time>
      </trkpt>
      <trkpt lat="45.0769" lon="4.5753">
        <ele>570.2</ele>
        <time>2018-08-10T10:40:26Z</time>
      </trkpt>
      <trkpt lat="45.0768" lon="4.57553">
        <ele>566.83</ele>
        <time>2018-08-10T10:40:45Z</time>
      </trkpt>
      <trkpt lat="45.07674" lon="4.57563">
        <ele>565.87</ele>
        <time>2018-08-10T10:40:54Z</time>
      </trkpt>
      <trkpt lat="45.07671" lon="4.57571">
        <ele>564.43</ele>
        <time>2018-08-10T10:41:02Z</time>
      </trkpt>
      <trkpt lat="45.0768" lon="4.57588">
        <ele>562.99</ele>
        <time>2018-08-10T10:41:21Z</time>
      </trkpt>
      <trkpt lat="45.07686" lon="4.57591">
        <ele>562.03</ele>
        <time>2018-08-10T10:41:29Z</time>
      </trkpt>
      <trkpt lat="45.07698" lon="4.57598">
        <ele>561.55</ele>
        <time>2018-08-10T10:41:45Z</time>
      </trkpt>
      <trkpt lat="45.07712" lon="4.5761">
        <ele>561.55</ele>
        <time>2018-08-10T10:42:01Z</time>
      </trkpt>
      <trkpt lat="45.07735" lon="4.57628">
        <ele>561.55</ele>
        <time>2018-08-10T10:42:23Z</time>
      </trkpt>
      <trkpt lat="45.07748" lon="4.57638">
        <ele>562.51</ele>
        <time>2018-08-10T10:42:36Z</time>
      </trkpt>
      <trkpt lat="45.07764" lon="4.57652">
        <ele>562.99</ele>
        <time>2018-08-10T10:42:55Z</time>
      </trkpt>
      <trkpt lat="45.0778" lon="4.57666">
        <ele>562.99</ele>
        <time>2018-08-10T10:43:11Z</time>
      </trkpt>
      <trkpt lat="45.07787" lon="4.57674">
        <ele>562.99</ele>
        <time>2018-08-10T10:43:19Z</time>
      </trkpt>
      <trkpt lat="45.0779" lon="4.57679">
        <ele>561.55</ele>
        <time>2018-08-10T10:43:23Z</time>
      </trkpt>
      <trkpt lat="45.078" lon="4.57697">
        <ele>560.59</ele>
        <time>2018-08-10T10:43:38Z</time>
      </trkpt>
      <trkpt lat="45.0781" lon="4.57719">
        <ele>559.14</ele>
        <time>2018-08-10T10:43:56Z</time>
      </trkpt>
      <trkpt lat="45.07822" lon="4.57736">
        <ele>557.22</ele>
        <time>2018-08-10T10:44:13Z</time>
      </trkpt>
      <trkpt lat="45.07838" lon="4.57748">
        <ele>555.78</ele>
        <time>2018-08-10T10:44:32Z</time>
      </trkpt>
      <trkpt lat="45.07841" lon="4.57751">
        <ele>555.78</ele>
        <time>2018-08-10T10:44:36Z</time>
      </trkpt>
      <trkpt lat="45.07857" lon="4.57767">
        <ele>554.82</ele>
        <time>2018-08-10T10:44:53Z</time>
      </trkpt>
      <trkpt lat="45.0786" lon="4.57768">
        <ele>556.26</ele>
        <time>2018-08-10T10:44:56Z</time>
      </trkpt>
      <trkpt lat="45.07876" lon="4.57772">
        <ele>557.22</ele>
        <time>2018-08-10T10:45:13Z</time>
      </trkpt>
      <trkpt lat="45.07893" lon="4.57775">
        <ele>558.66</ele>
        <time>2018-08-10T10:45:31Z</time>
      </trkpt>
      <trkpt lat="45.0791" lon="4.57774">
        <ele>558.66</ele>
        <time>2018-08-10T10:45:48Z</time>
      </trkpt>
      <trkpt lat="45.07929" lon="4.57771">
        <ele>558.66</ele>
        <time>2018-08-10T10:46:07Z</time>
      </trkpt>
      <trkpt lat="45.07942" lon="4.57775">
        <ele>559.62</ele>
        <time>2018-08-10T10:46:23Z</time>
      </trkpt>
      <trkpt lat="45.07942" lon="4.57775">
        <ele>559.62</ele>
        <time>2018-08-10T10:46:31Z</time>
      </trkpt>
      <trkpt lat="45.07944" lon="4.57777">
        <ele>555.78</ele>
        <time>2018-08-10T10:46:33Z</time>
      </trkpt>
      <trkpt lat="45.07945" lon="4.57777">
        <ele>561.55</ele>
        <time>2018-08-10T10:46:34Z</time>
      </trkpt>
      <trkpt lat="45.07949" lon="4.5778">
        <ele>558.66</ele>
        <time>2018-08-10T10:46:39Z</time>
      </trkpt>
      <trkpt lat="45.07953" lon="4.57784">
        <ele>558.66</ele>
        <time>2018-08-10T10:46:45Z</time>
      </trkpt>
      <trkpt lat="45.07954" lon="4.57786">
        <ele>559.62</ele>
        <time>2018-08-10T10:46:47Z</time>
      </trkpt>
      <trkpt lat="45.07958" lon="4.57807">
        <ele>561.55</ele>
        <time>2018-08-10T10:47:01Z</time>
      </trkpt>
      <trkpt lat="45.07962" lon="4.57828">
        <ele>562.03</ele>
        <time>2018-08-10T10:47:15Z</time>
      </trkpt>
      <trkpt lat="45.07971" lon="4.57844">
        <ele>562.51</ele>
        <time>2018-08-10T10:47:31Z</time>
      </trkpt>
      <trkpt lat="45.07982" lon="4.57854">
        <ele>563.47</ele>
        <time>2018-08-10T10:47:47Z</time>
      </trkpt>
      <trkpt lat="45.07992" lon="4.57856">
        <ele>563.95</ele>
        <time>2018-08-10T10:47:59Z</time>
      </trkpt>
      <trkpt lat="45.08013" lon="4.57864">
        <ele>564.43</ele>
        <time>2018-08-10T10:48:19Z</time>
      </trkpt>
      <trkpt lat="45.08029" lon="4.57875">
        <ele>564.91</ele>
        <time>2018-08-10T10:48:36Z</time>
      </trkpt>
      <trkpt lat="45.08042" lon="4.57892">
        <ele>563.47</ele>
        <time>2018-08-10T10:48:51Z</time>
      </trkpt>
      <trkpt lat="45.08048" lon="4.579">
        <ele>563.47</ele>
        <time>2018-08-10T10:48:58Z</time>
      </trkpt>
      <trkpt lat="45.08061" lon="4.57915">
        <ele>563.47</ele>
        <time>2018-08-10T10:49:14Z</time>
      </trkpt>
      <trkpt lat="45.08077" lon="4.57929">
        <ele>562.51</ele>
        <time>2018-08-10T10:49:31Z</time>
      </trkpt>
      <trkpt lat="45.08094" lon="4.57942">
        <ele>562.51</ele>
        <time>2018-08-10T10:49:48Z</time>
      </trkpt>
      <trkpt lat="45.08111" lon="4.57956">
        <ele>562.03</ele>
        <time>2018-08-10T10:50:05Z</time>
      </trkpt>
      <trkpt lat="45.08129" lon="4.57966">
        <ele>562.99</ele>
        <time>2018-08-10T10:50:22Z</time>
      </trkpt>
      <trkpt lat="45.0814" lon="4.57969">
        <ele>562.03</ele>
        <time>2018-08-10T10:50:32Z</time>
      </trkpt>
      <trkpt lat="45.08159" lon="4.57978">
        <ele>560.59</ele>
        <time>2018-08-10T10:50:49Z</time>
      </trkpt>
      <trkpt lat="45.0817" lon="4.58003">
        <ele>560.59</ele>
        <time>2018-08-10T10:51:06Z</time>
      </trkpt>
      <trkpt lat="45.08174" lon="4.58034">
        <ele>559.14</ele>
        <time>2018-08-10T10:51:25Z</time>
      </trkpt>
      <trkpt lat="45.08174" lon="4.58037">
        <ele>560.59</ele>
        <time>2018-08-10T10:51:27Z</time>
      </trkpt>
      <trkpt lat="45.08176" lon="4.58044">
        <ele>560.59</ele>
        <time>2018-08-10T10:51:31Z</time>
      </trkpt>
      <trkpt lat="45.08181" lon="4.58071">
        <ele>558.66</ele>
        <time>2018-08-10T10:51:49Z</time>
      </trkpt>
      <trkpt lat="45.0819" lon="4.58091">
        <ele>558.18</ele>
        <time>2018-08-10T10:52:06Z</time>
      </trkpt>
      <trkpt lat="45.08187" lon="4.58094">
        <ele>557.22</ele>
        <time>2018-08-10T10:52:25Z</time>
      </trkpt>
      <trkpt lat="45.08188" lon="4.58094">
        <ele>557.22</ele>
        <time>2018-08-10T10:52:29Z</time>
      </trkpt>
      <trkpt lat="45.08192" lon="4.58097">
        <ele>557.22</ele>
        <time>2018-08-10T10:52:33Z</time>
      </trkpt>
      <trkpt lat="45.08195" lon="4.581">
        <ele>560.11</ele>
        <time>2018-08-10T10:52:37Z</time>
      </trkpt>
      <trkpt lat="45.08208" lon="4.58105">
        <ele>560.11</ele>
        <time>2018-08-10T10:52:52Z</time>
      </trkpt>
      <trkpt lat="45.08221" lon="4.58109">
        <ele>560.59</ele>
        <time>2018-08-10T10:53:06Z</time>
      </trkpt>
      <trkpt lat="45.08235" lon="4.58111">
        <ele>561.55</ele>
        <time>2018-08-10T10:53:22Z</time>
      </trkpt>
      <trkpt lat="45.08247" lon="4.58114">
        <ele>563.47</ele>
        <time>2018-08-10T10:53:40Z</time>
      </trkpt>
      <trkpt lat="45.08262" lon="4.5812">
        <ele>564.91</ele>
        <time>2018-08-10T10:53:57Z</time>
      </trkpt>
      <trkpt lat="45.08274" lon="4.58123">
        <ele>566.83</ele>
        <time>2018-08-10T10:54:12Z</time>
      </trkpt>
      <trkpt lat="45.08285" lon="4.58131">
        <ele>567.8</ele>
        <time>2018-08-10T10:54:26Z</time>
      </trkpt>
      <trkpt lat="45.08292" lon="4.58139">
        <ele>569.24</ele>
        <time>2018-08-10T10:54:38Z</time>
      </trkpt>
      <trkpt lat="45.08296" lon="4.58135">
        <ele>569.24</ele>
        <time>2018-08-10T10:54:51Z</time>
      </trkpt>
      <trkpt lat="45.08303" lon="4.58128">
        <ele>570.2</ele>
        <time>2018-08-10T10:55:07Z</time>
      </trkpt>
      <trkpt lat="45.08308" lon="4.5812">
        <ele>571.16</ele>
        <time>2018-08-10T10:55:30Z</time>
      </trkpt>
      <trkpt lat="45.08317" lon="4.58106">
        <ele>573.56</ele>
        <time>2018-08-10T10:55:47Z</time>
      </trkpt>
      <trkpt lat="45.08322" lon="4.58105">
        <ele>574.53</ele>
        <time>2018-08-10T10:56:02Z</time>
      </trkpt>
      <trkpt lat="45.08327" lon="4.58102">
        <ele>575.01</ele>
        <time>2018-08-10T10:56:21Z</time>
      </trkpt>
      <trkpt lat="45.08335" lon="4.581">
        <ele>576.45</ele>
        <time>2018-08-10T10:56:33Z</time>
      </trkpt>
      <trkpt lat="45.08345" lon="4.58096">
        <ele>577.89</ele>
        <time>2018-08-10T10:56:49Z</time>
      </trkpt>
      <trkpt lat="45.08357" lon="4.58096">
        <ele>579.81</ele>
        <time>2018-08-10T10:57:04Z</time>
      </trkpt>
      <trkpt lat="45.08369" lon="4.58096">
        <ele>582.7</ele>
        <time>2018-08-10T10:57:19Z</time>
      </trkpt>
      <trkpt lat="45.08383" lon="4.58099">
        <ele>585.58</ele>
        <time>2018-08-10T10:57:36Z</time>
      </trkpt>
      <trkpt lat="45.08393" lon="4.58101">
        <ele>587.5</ele>
        <time>2018-08-10T10:57:51Z</time>
      </trkpt>
      <trkpt lat="45.08406" lon="4.58104">
        <ele>589.91</ele>
        <time>2018-08-10T10:58:08Z</time>
      </trkpt>
      <trkpt lat="45.08417" lon="4.58105">
        <ele>592.31</ele>
        <time>2018-08-10T10:58:24Z</time>
      </trkpt>
      <trkpt lat="45.08427" lon="4.58103">
        <ele>593.75</ele>
        <time>2018-08-10T10:58:40Z</time>
      </trkpt>
      <trkpt lat="45.08438" lon="4.58097">
        <ele>595.67</ele>
        <time>2018-08-10T10:58:56Z</time>
      </trkpt>
      <trkpt lat="45.08448" lon="4.5809">
        <ele>597.12</ele>
        <time>2018-08-10T10:59:13Z</time>
      </trkpt>
      <trkpt lat="45.08454" lon="4.58086">
        <ele>599.04</ele>
        <time>2018-08-10T10:59:30Z</time>
      </trkpt>
      <trkpt lat="45.08457" lon="4.58085">
        <ele>598.56</ele>
        <time>2018-08-10T10:59:53Z</time>
      </trkpt>
      <trkpt lat="45.08459" lon="4.58083">
        <ele>598.08</ele>
        <time>2018-08-10T11:00:19Z</time>
      </trkpt>
      <trkpt lat="45.08464" lon="4.58077">
        <ele>600</ele>
        <time>2018-08-10T11:00:34Z</time>
      </trkpt>
      <trkpt lat="45.08471" lon="4.58069">
        <ele>601.44</ele>
        <time>2018-08-10T11:00:51Z</time>
      </trkpt>
      <trkpt lat="45.0848" lon="4.58059">
        <ele>603.85</ele>
        <time>2018-08-10T11:01:08Z</time>
      </trkpt>
      <trkpt lat="45.08489" lon="4.5805">
        <ele>605.77</ele>
        <time>2018-08-10T11:01:22Z</time>
      </trkpt>
      <trkpt lat="45.08498" lon="4.58043">
        <ele>608.17</ele>
        <time>2018-08-10T11:01:39Z</time>
      </trkpt>
      <trkpt lat="45.08508" lon="4.58033">
        <ele>610.09</ele>
        <time>2018-08-10T11:01:56Z</time>
      </trkpt>
      <trkpt lat="45.08516" lon="4.58022">
        <ele>613.46</ele>
        <time>2018-08-10T11:02:12Z</time>
      </trkpt>
      <trkpt lat="45.08522" lon="4.58012">
        <ele>615.38</ele>
        <time>2018-08-10T11:02:27Z</time>
      </trkpt>
      <trkpt lat="45.0853" lon="4.58">
        <ele>617.78</ele>
        <time>2018-08-10T11:02:43Z</time>
      </trkpt>
      <trkpt lat="45.08538" lon="4.57986">
        <ele>619.23</ele>
        <time>2018-08-10T11:02:59Z</time>
      </trkpt>
      <trkpt lat="45.08544" lon="4.57979">
        <ele>620.67</ele>
        <time>2018-08-10T11:03:14Z</time>
      </trkpt>
      <trkpt lat="45.08545" lon="4.57973">
        <ele>621.63</ele>
        <time>2018-08-10T11:03:37Z</time>
      </trkpt>
      <trkpt lat="45.08549" lon="4.57961">
        <ele>622.59</ele>
        <time>2018-08-10T11:03:52Z</time>
      </trkpt>
      <trkpt lat="45.08551" lon="4.57944">
        <ele>624.51</ele>
        <time>2018-08-10T11:04:07Z</time>
      </trkpt>
      <trkpt lat="45.08554" lon="4.57932">
        <ele>624.99</ele>
        <time>2018-08-10T11:04:21Z</time>
      </trkpt>
      <trkpt lat="45.08554" lon="4.57924">
        <ele>624.99</ele>
        <time>2018-08-10T11:04:44Z</time>
      </trkpt>
      <trkpt lat="45.08559" lon="4.57912">
        <ele>625.47</ele>
        <time>2018-08-10T11:05:05Z</time>
      </trkpt>
      <trkpt lat="45.08565" lon="4.57897">
        <ele>626.92</ele>
        <time>2018-08-10T11:05:22Z</time>
      </trkpt>
      <trkpt lat="45.08568" lon="4.57885">
        <ele>628.36</ele>
        <time>2018-08-10T11:05:39Z</time>
      </trkpt>
      <trkpt lat="45.08566" lon="4.57877">
        <ele>627.88</ele>
        <time>2018-08-10T11:06:10Z</time>
      </trkpt>
      <trkpt lat="45.08567" lon="4.57883">
        <ele>628.84</ele>
        <time>2018-08-10T11:06:45Z</time>
      </trkpt>
      <trkpt lat="45.08572" lon="4.57871">
        <ele>628.84</ele>
        <time>2018-08-10T11:07:02Z</time>
      </trkpt>
      <trkpt lat="45.08576" lon="4.57857">
        <ele>629.32</ele>
        <time>2018-08-10T11:07:19Z</time>
      </trkpt>
      <trkpt lat="45.08579" lon="4.57844">
        <ele>629.8</ele>
        <time>2018-08-10T11:07:37Z</time>
      </trkpt>
      <trkpt lat="45.08589" lon="4.57832">
        <ele>632.2</ele>
        <time>2018-08-10T11:07:55Z</time>
      </trkpt>
      <trkpt lat="45.086" lon="4.57819">
        <ele>633.65</ele>
        <time>2018-08-10T11:08:12Z</time>
      </trkpt>
      <trkpt lat="45.08609" lon="4.57813">
        <ele>635.57</ele>
        <time>2018-08-10T11:08:31Z</time>
      </trkpt>
      <trkpt lat="45.08622" lon="4.57804">
        <ele>638.45</ele>
        <time>2018-08-10T11:08:52Z</time>
      </trkpt>
      <trkpt lat="45.08634" lon="4.57786">
        <ele>640.38</ele>
        <time>2018-08-10T11:09:12Z</time>
      </trkpt>
      <trkpt lat="45.08642" lon="4.57769">
        <ele>643.26</ele>
        <time>2018-08-10T11:09:32Z</time>
      </trkpt>
      <trkpt lat="45.0865" lon="4.57756">
        <ele>646.62</ele>
        <time>2018-08-10T11:09:54Z</time>
      </trkpt>
      <trkpt lat="45.08655" lon="4.57741">
        <ele>649.51</ele>
        <time>2018-08-10T11:10:13Z</time>
      </trkpt>
      <trkpt lat="45.0866" lon="4.57728">
        <ele>650.95</ele>
        <time>2018-08-10T11:10:34Z</time>
      </trkpt>
      <trkpt lat="45.08665" lon="4.57716">
        <ele>653.35</ele>
        <time>2018-08-10T11:10:56Z</time>
      </trkpt>
      <trkpt lat="45.0867" lon="4.57698">
        <ele>656.24</ele>
        <time>2018-08-10T11:11:17Z</time>
      </trkpt>
      <trkpt lat="45.08676" lon="4.57685">
        <ele>658.16</ele>
        <time>2018-08-10T11:11:37Z</time>
      </trkpt>
      <trkpt lat="45.08682" lon="4.5767">
        <ele>660.08</ele>
        <time>2018-08-10T11:11:56Z</time>
      </trkpt>
      <trkpt lat="45.08692" lon="4.57654">
        <ele>662.01</ele>
        <time>2018-08-10T11:12:16Z</time>
      </trkpt>
      <trkpt lat="45.08707" lon="4.57639">
        <ele>663.93</ele>
        <time>2018-08-10T11:12:39Z</time>
      </trkpt>
      <trkpt lat="45.08721" lon="4.57629">
        <ele>665.85</ele>
        <time>2018-08-10T11:12:58Z</time>
      </trkpt>
      <trkpt lat="45.08734" lon="4.57647">
        <ele>668.25</ele>
        <time>2018-08-10T11:13:18Z</time>
      </trkpt>
      <trkpt lat="45.08738" lon="4.57665">
        <ele>670.18</ele>
        <time>2018-08-10T11:13:36Z</time>
      </trkpt>
      <trkpt lat="45.08737" lon="4.5767">
        <ele>671.14</ele>
        <time>2018-08-10T11:13:53Z</time>
      </trkpt>
      <trkpt lat="45.08737" lon="4.57671">
        <ele>669.7</ele>
        <time>2018-08-10T11:13:54Z</time>
      </trkpt>
      <trkpt lat="45.08743" lon="4.57682">
        <ele>672.1</ele>
        <time>2018-08-10T11:14:09Z</time>
      </trkpt>
      <trkpt lat="45.08745" lon="4.57678">
        <ele>673.06</ele>
        <time>2018-08-10T11:14:25Z</time>
      </trkpt>
      <trkpt lat="45.08743" lon="4.57676">
        <ele>673.06</ele>
        <time>2018-08-10T11:14:49Z</time>
      </trkpt>
      <trkpt lat="45.0874" lon="4.57655">
        <ele>673.06</ele>
        <time>2018-08-10T11:15:06Z</time>
      </trkpt>
      <trkpt lat="45.08739" lon="4.57651">
        <ele>671.62</ele>
        <time>2018-08-10T11:15:11Z</time>
      </trkpt>
      <trkpt lat="45.08741" lon="4.57645">
        <ele>671.14</ele>
        <time>2018-08-10T11:15:23Z</time>
      </trkpt>
      <trkpt lat="45.0874" lon="4.57646">
        <ele>664.89</ele>
        <time>2018-08-10T11:15:25Z</time>
      </trkpt>
      <trkpt lat="45.0874" lon="4.57645">
        <ele>670.66</ele>
        <time>2018-08-10T11:15:26Z</time>
      </trkpt>
      <trkpt lat="45.08741" lon="4.57642">
        <ele>672.1</ele>
        <time>2018-08-10T11:15:47Z</time>
      </trkpt>
      <trkpt lat="45.08742" lon="4.57642">
        <ele>670.18</ele>
        <time>2018-08-10T11:15:58Z</time>
      </trkpt>
      <trkpt lat="45.08741" lon="4.57644">
        <ele>670.66</ele>
        <time>2018-08-10T11:16:32Z</time>
      </trkpt>
      <trkpt lat="45.08742" lon="4.57647">
        <ele>671.62</ele>
        <time>2018-08-10T11:17:10Z</time>
      </trkpt>
      <trkpt lat="45.08741" lon="4.57642">
        <ele>672.1</ele>
        <time>2018-08-10T11:17:40Z</time>
      </trkpt>
      <trkpt lat="45.08741" lon="4.57641">
        <ele>670.66</ele>
        <time>2018-08-10T12:04:48Z</time>
      </trkpt>
      <trkpt lat="45.0874" lon="4.57639">
        <ele>671.14</ele>
        <time>2018-08-10T12:04:55Z</time>
      </trkpt>
      <trkpt lat="45.08741" lon="4.57637">
        <ele>674.02</ele>
        <time>2018-08-10T12:05:09Z</time>
      </trkpt>
      <trkpt lat="45.08741" lon="4.57636">
        <ele>676.91</ele>
        <time>2018-08-10T12:05:30Z</time>
      </trkpt>
      <trkpt lat="45.08742" lon="4.57637">
        <ele>671.62</ele>
        <time>2018-08-10T12:05:33Z</time>
      </trkpt>
      <trkpt lat="45.08743" lon="4.57638">
        <ele>677.39</ele>
        <time>2018-08-10T12:05:34Z</time>
      </trkpt>
      <trkpt lat="45.0874" lon="4.57646">
        <ele>678.35</ele>
        <time>2018-08-10T12:05:51Z</time>
      </trkpt>
      <trkpt lat="45.08741" lon="4.57647">
        <ele>677.39</ele>
        <time>2018-08-10T12:06:00Z</time>
      </trkpt>
      <trkpt lat="45.08743" lon="4.57657">
        <ele>678.35</ele>
        <time>2018-08-10T12:06:16Z</time>
      </trkpt>
      <trkpt lat="45.08746" lon="4.57672">
        <ele>679.79</ele>
        <time>2018-08-10T12:06:32Z</time>
      </trkpt>
      <trkpt lat="45.08752" lon="4.57682">
        <ele>679.79</ele>
        <time>2018-08-10T12:06:45Z</time>
      </trkpt>
      <trkpt lat="45.08761" lon="4.57681">
        <ele>680.75</ele>
        <time>2018-08-10T12:07:00Z</time>
      </trkpt>
      <trkpt lat="45.08763" lon="4.57684">
        <ele>681.23</ele>
        <time>2018-08-10T12:07:24Z</time>
      </trkpt>
      <trkpt lat="45.0877" lon="4.57685">
        <ele>682.67</ele>
        <time>2018-08-10T12:07:43Z</time>
      </trkpt>
      <trkpt lat="45.08773" lon="4.57686">
        <ele>683.15</ele>
        <time>2018-08-10T12:08:00Z</time>
      </trkpt>
      <trkpt lat="45.08777" lon="4.57684">
        <ele>683.15</ele>
        <time>2018-08-10T12:08:32Z</time>
      </trkpt>
      <trkpt lat="45.08782" lon="4.57685">
        <ele>683.63</ele>
        <time>2018-08-10T12:08:46Z</time>
      </trkpt>
      <trkpt lat="45.08786" lon="4.57687">
        <ele>685.56</ele>
        <time>2018-08-10T12:09:00Z</time>
      </trkpt>
      <trkpt lat="45.0879" lon="4.57688">
        <ele>686.52</ele>
        <time>2018-08-10T12:09:15Z</time>
      </trkpt>
      <trkpt lat="45.08792" lon="4.57691">
        <ele>686.52</ele>
        <time>2018-08-10T12:09:40Z</time>
      </trkpt>
      <trkpt lat="45.08796" lon="4.57691">
        <ele>687.48</ele>
        <time>2018-08-10T12:10:03Z</time>
      </trkpt>
      <trkpt lat="45.08799" lon="4.57692">
        <ele>687.96</ele>
        <time>2018-08-10T12:10:23Z</time>
      </trkpt>
      <trkpt lat="45.08803" lon="4.5769">
        <ele>688.92</ele>
        <time>2018-08-10T12:10:41Z</time>
      </trkpt>
      <trkpt lat="45.08806" lon="4.5769">
        <ele>689.4</ele>
        <time>2018-08-10T12:11:02Z</time>
      </trkpt>
      <trkpt lat="45.08808" lon="4.57691">
        <ele>689.4</ele>
        <time>2018-08-10T12:11:30Z</time>
      </trkpt>
      <trkpt lat="45.08809" lon="4.5769">
        <ele>690.36</ele>
        <time>2018-08-10T12:11:51Z</time>
      </trkpt>
      <trkpt lat="45.08811" lon="4.57691">
        <ele>690.84</ele>
        <time>2018-08-10T12:12:19Z</time>
      </trkpt>
      <trkpt lat="45.08813" lon="4.57692">
        <ele>690.84</ele>
        <time>2018-08-10T12:12:46Z</time>
      </trkpt>
      <trkpt lat="45.08811" lon="4.57691">
        <ele>690.84</ele>
        <time>2018-08-10T12:13:16Z</time>
      </trkpt>
      <trkpt lat="45.08811" lon="4.57692">
        <ele>690.36</ele>
        <time>2018-08-10T12:13:31Z</time>
      </trkpt>
      <trkpt lat="45.08811" lon="4.57693">
        <ele>688.92</ele>
        <time>2018-08-10T12:13:52Z</time>
      </trkpt>
      <trkpt lat="45.08812" lon="4.57693">
        <ele>689.88</ele>
        <time>2018-08-10T12:14:28Z</time>
      </trkpt>
      <trkpt lat="45.08811" lon="4.5769">
        <ele>689.88</ele>
        <time>2018-08-10T12:14:48Z</time>
      </trkpt>
      <trkpt lat="45.08812" lon="4.5769">
        <ele>689.88</ele>
        <time>2018-08-10T12:15:09Z</time>
      </trkpt>
      <trkpt lat="45.08813" lon="4.5769">
        <ele>689.4</ele>
        <time>2018-08-10T12:15:47Z</time>
      </trkpt>
      <trkpt lat="45.08816" lon="4.57692">
        <ele>690.84</ele>
        <time>2018-08-10T12:15:58Z</time>
      </trkpt>
      <trkpt lat="45.08816" lon="4.5769">
        <ele>690.84</ele>
        <time>2018-08-10T12:16:20Z</time>
      </trkpt>
      <trkpt lat="45.08821" lon="4.57692">
        <ele>691.81</ele>
        <time>2018-08-10T12:16:37Z</time>
      </trkpt>
      <trkpt lat="45.08825" lon="4.57692">
        <ele>692.77</ele>
        <time>2018-08-10T12:16:51Z</time>
      </trkpt>
      <trkpt lat="45.08827" lon="4.57696">
        <ele>693.25</ele>
        <time>2018-08-10T12:17:02Z</time>
      </trkpt>
      <trkpt lat="45.0883" lon="4.57699">
        <ele>694.21</ele>
        <time>2018-08-10T12:17:34Z</time>
      </trkpt>
      <trkpt lat="45.08831" lon="4.57696">
        <ele>693.73</ele>
        <time>2018-08-10T12:18:09Z</time>
      </trkpt>
      <trkpt lat="45.08833" lon="4.57695">
        <ele>693.73</ele>
        <time>2018-08-10T12:18:32Z</time>
      </trkpt>
      <trkpt lat="45.08849" lon="4.57693">
        <ele>696.61</ele>
        <time>2018-08-10T12:18:48Z</time>
      </trkpt>
      <trkpt lat="45.0886" lon="4.57692">
        <ele>699.5</ele>
        <time>2018-08-10T12:19:03Z</time>
      </trkpt>
      <trkpt lat="45.0887" lon="4.57704">
        <ele>701.42</ele>
        <time>2018-08-10T12:19:19Z</time>
      </trkpt>
      <trkpt lat="45.08875" lon="4.57706">
        <ele>702.86</ele>
        <time>2018-08-10T12:19:35Z</time>
      </trkpt>
      <trkpt lat="45.08884" lon="4.5771">
        <ele>704.78</ele>
        <time>2018-08-10T12:19:54Z</time>
      </trkpt>
      <trkpt lat="45.08891" lon="4.57702">
        <ele>706.71</ele>
        <time>2018-08-10T12:20:10Z</time>
      </trkpt>
      <trkpt lat="45.08899" lon="4.57695">
        <ele>708.63</ele>
        <time>2018-08-10T12:20:29Z</time>
      </trkpt>
      <trkpt lat="45.08904" lon="4.57682">
        <ele>710.55</ele>
        <time>2018-08-10T12:20:46Z</time>
      </trkpt>
      <trkpt lat="45.08908" lon="4.57676">
        <ele>710.55</ele>
        <time>2018-08-10T12:21:06Z</time>
      </trkpt>
      <trkpt lat="45.08906" lon="4.57668">
        <ele>710.55</ele>
        <time>2018-08-10T12:21:27Z</time>
      </trkpt>
      <trkpt lat="45.08907" lon="4.57658">
        <ele>711.03</ele>
        <time>2018-08-10T12:21:40Z</time>
      </trkpt>
      <trkpt lat="45.08918" lon="4.57658">
        <ele>712.95</ele>
        <time>2018-08-10T12:21:54Z</time>
      </trkpt>
      <trkpt lat="45.08928" lon="4.57665">
        <ele>714.88</ele>
        <time>2018-08-10T12:22:12Z</time>
      </trkpt>
      <trkpt lat="45.08934" lon="4.57669">
        <ele>715.84</ele>
        <time>2018-08-10T12:22:28Z</time>
      </trkpt>
      <trkpt lat="45.08936" lon="4.57678">
        <ele>715.84</ele>
        <time>2018-08-10T12:22:43Z</time>
      </trkpt>
      <trkpt lat="45.08935" lon="4.57672">
        <ele>717.76</ele>
        <time>2018-08-10T12:23:09Z</time>
      </trkpt>
      <trkpt lat="45.08941" lon="4.57671">
        <ele>717.28</ele>
        <time>2018-08-10T12:23:19Z</time>
      </trkpt>
      <trkpt lat="45.08949" lon="4.57665">
        <ele>720.65</ele>
        <time>2018-08-10T12:23:36Z</time>
      </trkpt>
      <trkpt lat="45.08959" lon="4.57658">
        <ele>721.61</ele>
        <time>2018-08-10T12:23:51Z</time>
      </trkpt>
      <trkpt lat="45.08971" lon="4.57653">
        <ele>724.97</ele>
        <time>2018-08-10T12:24:05Z</time>
      </trkpt>
      <trkpt lat="45.08974" lon="4.57655">
        <ele>726.89</ele>
        <time>2018-08-10T12:24:23Z</time>
      </trkpt>
      <trkpt lat="45.08977" lon="4.57656">
        <ele>726.89</ele>
        <time>2018-08-10T12:24:38Z</time>
      </trkpt>
      <trkpt lat="45.08985" lon="4.57657">
        <ele>727.37</ele>
        <time>2018-08-10T12:24:56Z</time>
      </trkpt>
      <trkpt lat="45.08991" lon="4.57659">
        <ele>727.86</ele>
        <time>2018-08-10T12:25:09Z</time>
      </trkpt>
      <trkpt lat="45.09003" lon="4.57663">
        <ele>728.82</ele>
        <time>2018-08-10T12:25:25Z</time>
      </trkpt>
      <trkpt lat="45.09013" lon="4.57665">
        <ele>729.3</ele>
        <time>2018-08-10T12:25:38Z</time>
      </trkpt>
      <trkpt lat="45.09015" lon="4.57667">
        <ele>729.3</ele>
        <time>2018-08-10T12:25:51Z</time>
      </trkpt>
      <trkpt lat="45.09015" lon="4.57668">
        <ele>729.78</ele>
        <time>2018-08-10T12:26:15Z</time>
      </trkpt>
      <trkpt lat="45.09014" lon="4.57667">
        <ele>729.78</ele>
        <time>2018-08-10T12:26:50Z</time>
      </trkpt>
      <trkpt lat="45.09013" lon="4.57668">
        <ele>729.78</ele>
        <time>2018-08-10T12:27:26Z</time>
      </trkpt>
      <trkpt lat="45.09014" lon="4.5767">
        <ele>730.26</ele>
        <time>2018-08-10T12:27:48Z</time>
      </trkpt>
      <trkpt lat="45.09013" lon="4.57669">
        <ele>730.26</ele>
        <time>2018-08-10T12:28:16Z</time>
      </trkpt>
      <trkpt lat="45.09013" lon="4.57668">
        <ele>730.26</ele>
        <time>2018-08-10T12:28:46Z</time>
      </trkpt>
      <trkpt lat="45.09014" lon="4.57668">
        <ele>730.26</ele>
        <time>2018-08-10T12:29:18Z</time>
      </trkpt>
      <trkpt lat="45.09013" lon="4.57669">
        <ele>730.74</ele>
        <time>2018-08-10T12:29:50Z</time>
      </trkpt>
      <trkpt lat="45.09014" lon="4.57669">
        <ele>729.3</ele>
        <time>2018-08-10T12:29:59Z</time>
      </trkpt>
      <trkpt lat="45.09013" lon="4.5767">
        <ele>730.74</ele>
        <time>2018-08-10T12:30:33Z</time>
      </trkpt>
      <trkpt lat="45.09013" lon="4.57668">
        <ele>730.74</ele>
        <time>2018-08-10T12:31:03Z</time>
      </trkpt>
      <trkpt lat="45.09013" lon="4.57668">
        <ele>730.74</ele>
        <time>2018-08-10T12:31:34Z</time>
      </trkpt>
      <trkpt lat="45.09019" lon="4.57667">
        <ele>731.22</ele>
        <time>2018-08-10T12:31:54Z</time>
      </trkpt>
      <trkpt lat="45.09022" lon="4.57667">
        <ele>731.22</ele>
        <time>2018-08-10T12:32:09Z</time>
      </trkpt>
      <trkpt lat="45.09023" lon="4.57666">
        <ele>731.22</ele>
        <time>2018-08-10T12:32:40Z</time>
      </trkpt>
      <trkpt lat="45.09032" lon="4.57668">
        <ele>731.22</ele>
        <time>2018-08-10T12:33:02Z</time>
      </trkpt>
      <trkpt lat="45.09037" lon="4.57669">
        <ele>731.22</ele>
        <time>2018-08-10T12:33:07Z</time>
      </trkpt>
      <trkpt lat="45.09047" lon="4.57669">
        <ele>732.18</ele>
        <time>2018-08-10T12:33:22Z</time>
      </trkpt>
      <trkpt lat="45.0906" lon="4.57666">
        <ele>734.58</ele>
        <time>2018-08-10T12:33:37Z</time>
      </trkpt>
      <trkpt lat="45.09071" lon="4.57663">
        <ele>735.07</ele>
        <time>2018-08-10T12:33:52Z</time>
      </trkpt>
      <trkpt lat="45.09083" lon="4.57661">
        <ele>735.55</ele>
        <time>2018-08-10T12:34:07Z</time>
      </trkpt>
      <trkpt lat="45.09094" lon="4.57659">
        <ele>736.51</ele>
        <time>2018-08-10T12:34:20Z</time>
      </trkpt>
      <trkpt lat="45.09106" lon="4.57658">
        <ele>737.95</ele>
        <time>2018-08-10T12:34:34Z</time>
      </trkpt>
      <trkpt lat="45.0911" lon="4.57657">
        <ele>738.43</ele>
        <time>2018-08-10T12:34:39Z</time>
      </trkpt>
      <trkpt lat="45.09125" lon="4.57652">
        <ele>738.91</ele>
        <time>2018-08-10T12:34:56Z</time>
      </trkpt>
      <trkpt lat="45.09138" lon="4.57646">
        <ele>738.91</ele>
        <time>2018-08-10T12:35:12Z</time>
      </trkpt>
      <trkpt lat="45.09152" lon="4.57636">
        <ele>739.87</ele>
        <time>2018-08-10T12:35:31Z</time>
      </trkpt>
      <trkpt lat="45.09158" lon="4.5763">
        <ele>741.31</ele>
        <time>2018-08-10T12:35:47Z</time>
      </trkpt>
      <trkpt lat="45.09157" lon="4.57619">
        <ele>741.31</ele>
        <time>2018-08-10T12:36:06Z</time>
      </trkpt>
      <trkpt lat="45.0916" lon="4.57615">
        <ele>742.28</ele>
        <time>2018-08-10T12:36:21Z</time>
      </trkpt>
      <trkpt lat="45.0916" lon="4.57614">
        <ele>742.28</ele>
        <time>2018-08-10T12:36:38Z</time>
      </trkpt>
      <trkpt lat="45.0916" lon="4.57615">
        <ele>742.28</ele>
        <time>2018-08-10T12:36:56Z</time>
      </trkpt>
      <trkpt lat="45.09159" lon="4.57614">
        <ele>742.28</ele>
        <time>2018-08-10T12:37:22Z</time>
      </trkpt>
      <trkpt lat="45.09158" lon="4.57616">
        <ele>742.28</ele>
        <time>2018-08-10T12:37:38Z</time>
      </trkpt>
      <trkpt lat="45.09155" lon="4.57619">
        <ele>742.28</ele>
        <time>2018-08-10T12:38:02Z</time>
      </trkpt>
      <trkpt lat="45.09155" lon="4.57623">
        <ele>742.28</ele>
        <time>2018-08-10T12:38:06Z</time>
      </trkpt>
      <trkpt lat="45.09147" lon="4.57634">
        <ele>741.31</ele>
        <time>2018-08-10T12:38:22Z</time>
      </trkpt>
      <trkpt lat="45.09136" lon="4.5764">
        <ele>741.31</ele>
        <time>2018-08-10T12:38:37Z</time>
      </trkpt>
      <trkpt lat="45.09122" lon="4.57642">
        <ele>741.31</ele>
        <time>2018-08-10T12:38:53Z</time>
      </trkpt>
      <trkpt lat="45.09104" lon="4.57644">
        <ele>741.31</ele>
        <time>2018-08-10T12:39:10Z</time>
      </trkpt>
      <trkpt lat="45.09096" lon="4.57644">
        <ele>742.28</ele>
        <time>2018-08-10T12:39:25Z</time>
      </trkpt>
      <trkpt lat="45.09094" lon="4.57643">
        <ele>742.28</ele>
        <time>2018-08-10T12:39:44Z</time>
      </trkpt>
      <trkpt lat="45.09091" lon="4.57641">
        <ele>742.28</ele>
        <time>2018-08-10T12:39:48Z</time>
      </trkpt>
      <trkpt lat="45.09084" lon="4.5764">
        <ele>742.76</ele>
        <time>2018-08-10T12:40:04Z</time>
      </trkpt>
      <trkpt lat="45.09083" lon="4.57638">
        <ele>743.24</ele>
        <time>2018-08-10T12:40:21Z</time>
      </trkpt>
      <trkpt lat="45.09084" lon="4.57637">
        <ele>743.24</ele>
        <time>2018-08-10T12:40:39Z</time>
      </trkpt>
      <trkpt lat="45.09085" lon="4.57641">
        <ele>743.24</ele>
        <time>2018-08-10T12:41:04Z</time>
      </trkpt>
      <trkpt lat="45.09083" lon="4.5764">
        <ele>743.24</ele>
        <time>2018-08-10T12:41:34Z</time>
      </trkpt>
      <trkpt lat="45.09084" lon="4.57638">
        <ele>743.24</ele>
        <time>2018-08-10T12:42:11Z</time>
      </trkpt>
      <trkpt lat="45.09082" lon="4.57639">
        <ele>742.28</ele>
        <time>2018-08-10T12:42:46Z</time>
      </trkpt>
      <trkpt lat="45.09083" lon="4.5764">
        <ele>742.28</ele>
        <time>2018-08-10T12:43:23Z</time>
      </trkpt>
      <trkpt lat="45.09083" lon="4.57638">
        <ele>742.28</ele>
        <time>2018-08-10T12:43:45Z</time>
      </trkpt>
      <trkpt lat="45.09085" lon="4.57638">
        <ele>742.28</ele>
        <time>2018-08-10T12:44:15Z</time>
      </trkpt>
      <trkpt lat="45.09085" lon="4.57637">
        <ele>742.28</ele>
        <time>2018-08-10T12:44:45Z</time>
      </trkpt>
      <trkpt lat="45.09082" lon="4.57638">
        <ele>743.24</ele>
        <time>2018-08-10T12:45:11Z</time>
      </trkpt>
      <trkpt lat="45.09072" lon="4.57635">
        <ele>743.72</ele>
        <time>2018-08-10T12:45:33Z</time>
      </trkpt>
      <trkpt lat="45.0906" lon="4.57632">
        <ele>743.72</ele>
        <time>2018-08-10T12:45:52Z</time>
      </trkpt>
      <trkpt lat="45.09053" lon="4.57628">
        <ele>744.2</ele>
        <time>2018-08-10T12:46:09Z</time>
      </trkpt>
      <trkpt lat="45.09056" lon="4.57623">
        <ele>744.2</ele>
        <time>2018-08-10T12:46:32Z</time>
      </trkpt>
      <trkpt lat="45.09056" lon="4.57623">
        <ele>744.68</ele>
        <time>2018-08-10T12:46:49Z</time>
      </trkpt>
      <trkpt lat="45.09049" lon="4.57618">
        <ele>744.68</ele>
        <time>2018-08-10T12:47:06Z</time>
      </trkpt>
      <trkpt lat="45.0904" lon="4.57609">
        <ele>744.68</ele>
        <time>2018-08-10T12:47:20Z</time>
      </trkpt>
      <trkpt lat="45.0903" lon="4.5759">
        <ele>744.68</ele>
        <time>2018-08-10T12:47:37Z</time>
      </trkpt>
      <trkpt lat="45.09022" lon="4.57579">
        <ele>743.24</ele>
        <time>2018-08-10T12:47:49Z</time>
      </trkpt>
      <trkpt lat="45.09011" lon="4.57563">
        <ele>742.76</ele>
        <time>2018-08-10T12:48:06Z</time>
      </trkpt>
      <trkpt lat="45.09" lon="4.57541">
        <ele>742.76</ele>
        <time>2018-08-10T12:48:26Z</time>
      </trkpt>
      <trkpt lat="45.0899" lon="4.57522">
        <ele>742.76</ele>
        <time>2018-08-10T12:48:43Z</time>
      </trkpt>
      <trkpt lat="45.0898" lon="4.57498">
        <ele>742.76</ele>
        <time>2018-08-10T12:49:03Z</time>
      </trkpt>
      <trkpt lat="45.08975" lon="4.57479">
        <ele>742.76</ele>
        <time>2018-08-10T12:49:21Z</time>
      </trkpt>
      <trkpt lat="45.08975" lon="4.57475">
        <ele>744.2</ele>
        <time>2018-08-10T12:49:46Z</time>
      </trkpt>
      <trkpt lat="45.08975" lon="4.57467">
        <ele>744.2</ele>
        <time>2018-08-10T12:50:00Z</time>
      </trkpt>
      <trkpt lat="45.08973" lon="4.57465">
        <ele>744.2</ele>
        <time>2018-08-10T12:50:21Z</time>
      </trkpt>
      <trkpt lat="45.08968" lon="4.57456">
        <ele>744.2</ele>
        <time>2018-08-10T12:50:36Z</time>
      </trkpt>
      <trkpt lat="45.08959" lon="4.57432">
        <ele>744.2</ele>
        <time>2018-08-10T12:50:55Z</time>
      </trkpt>
      <trkpt lat="45.08944" lon="4.57411">
        <ele>744.2</ele>
        <time>2018-08-10T12:51:13Z</time>
      </trkpt>
      <trkpt lat="45.08937" lon="4.57391">
        <ele>744.68</ele>
        <time>2018-08-10T12:51:29Z</time>
      </trkpt>
      <trkpt lat="45.08933" lon="4.57384">
        <ele>745.16</ele>
        <time>2018-08-10T12:51:36Z</time>
      </trkpt>
      <trkpt lat="45.08927" lon="4.57364">
        <ele>747.08</ele>
        <time>2018-08-10T12:51:53Z</time>
      </trkpt>
      <trkpt lat="45.08927" lon="4.57359">
        <ele>747.08</ele>
        <time>2018-08-10T12:52:10Z</time>
      </trkpt>
      <trkpt lat="45.08921" lon="4.5735">
        <ele>747.56</ele>
        <time>2018-08-10T12:52:24Z</time>
      </trkpt>
      <trkpt lat="45.08911" lon="4.57337">
        <ele>747.08</ele>
        <time>2018-08-10T12:52:38Z</time>
      </trkpt>
      <trkpt lat="45.08911" lon="4.57334">
        <ele>747.08</ele>
        <time>2018-08-10T12:52:43Z</time>
      </trkpt>
      <trkpt lat="45.0891" lon="4.57333">
        <ele>747.08</ele>
        <time>2018-08-10T12:52:45Z</time>
      </trkpt>
      <trkpt lat="45.08899" lon="4.5732">
        <ele>748.52</ele>
        <time>2018-08-10T12:53:01Z</time>
      </trkpt>
      <trkpt lat="45.08888" lon="4.57304">
        <ele>749</ele>
        <time>2018-08-10T12:53:17Z</time>
      </trkpt>
      <trkpt lat="45.08883" lon="4.57299">
        <ele>749.49</ele>
        <time>2018-08-10T12:53:23Z</time>
      </trkpt>
      <trkpt lat="45.08878" lon="4.57293">
        <ele>749</ele>
        <time>2018-08-10T12:53:42Z</time>
      </trkpt>
      <trkpt lat="45.08873" lon="4.57291">
        <ele>748.52</ele>
        <time>2018-08-10T12:53:52Z</time>
      </trkpt>
      <trkpt lat="45.08856" lon="4.57279">
        <ele>746.6</ele>
        <time>2018-08-10T12:54:11Z</time>
      </trkpt>
      <trkpt lat="45.08838" lon="4.57268">
        <ele>745.64</ele>
        <time>2018-08-10T12:54:30Z</time>
      </trkpt>
      <trkpt lat="45.08819" lon="4.57261">
        <ele>744.2</ele>
        <time>2018-08-10T12:54:51Z</time>
      </trkpt>
      <trkpt lat="45.08801" lon="4.57251">
        <ele>741.31</ele>
        <time>2018-08-10T12:55:12Z</time>
      </trkpt>
      <trkpt lat="45.08788" lon="4.57245">
        <ele>739.39</ele>
        <time>2018-08-10T12:55:29Z</time>
      </trkpt>
      <trkpt lat="45.08775" lon="4.57243">
        <ele>737.95</ele>
        <time>2018-08-10T12:55:47Z</time>
      </trkpt>
      <trkpt lat="45.08761" lon="4.57242">
        <ele>736.03</ele>
        <time>2018-08-10T12:56:04Z</time>
      </trkpt>
      <trkpt lat="45.08757" lon="4.57243">
        <ele>735.55</ele>
        <time>2018-08-10T12:56:10Z</time>
      </trkpt>
      <trkpt lat="45.08743" lon="4.57248">
        <ele>733.14</ele>
        <time>2018-08-10T12:56:28Z</time>
      </trkpt>
      <trkpt lat="45.0873" lon="4.5726">
        <ele>731.7</ele>
        <time>2018-08-10T12:56:45Z</time>
      </trkpt>
      <trkpt lat="45.08721" lon="4.57274">
        <ele>730.74</ele>
        <time>2018-08-10T12:57:00Z</time>
      </trkpt>
      <trkpt lat="45.08711" lon="4.57285">
        <ele>729.3</ele>
        <time>2018-08-10T12:57:17Z</time>
      </trkpt>
      <trkpt lat="45.08697" lon="4.57303">
        <ele>727.86</ele>
        <time>2018-08-10T12:57:34Z</time>
      </trkpt>
      <trkpt lat="45.0868" lon="4.57317">
        <ele>727.37</ele>
        <time>2018-08-10T12:57:54Z</time>
      </trkpt>
      <trkpt lat="45.08673" lon="4.57319">
        <ele>726.89</ele>
        <time>2018-08-10T12:58:19Z</time>
      </trkpt>
      <trkpt lat="45.08671" lon="4.5732">
        <ele>726.89</ele>
        <time>2018-08-10T12:58:22Z</time>
      </trkpt>
      <trkpt lat="45.08665" lon="4.57321">
        <ele>725.93</ele>
        <time>2018-08-10T12:58:28Z</time>
      </trkpt>
      <trkpt lat="45.08645" lon="4.57315">
        <ele>723.53</ele>
        <time>2018-08-10T12:58:48Z</time>
      </trkpt>
      <trkpt lat="45.08641" lon="4.57314">
        <ele>723.53</ele>
        <time>2018-08-10T12:58:53Z</time>
      </trkpt>
      <trkpt lat="45.08638" lon="4.57314">
        <ele>722.57</ele>
        <time>2018-08-10T12:58:56Z</time>
      </trkpt>
      <trkpt lat="45.0862" lon="4.57311">
        <ele>721.13</ele>
        <time>2018-08-10T12:59:15Z</time>
      </trkpt>
      <trkpt lat="45.08615" lon="4.5731">
        <ele>720.65</ele>
        <time>2018-08-10T12:59:20Z</time>
      </trkpt>
      <trkpt lat="45.08607" lon="4.57296">
        <ele>718.24</ele>
        <time>2018-08-10T12:59:37Z</time>
      </trkpt>
      <trkpt lat="45.08609" lon="4.57291">
        <ele>717.28</ele>
        <time>2018-08-10T12:59:53Z</time>
      </trkpt>
      <trkpt lat="45.08607" lon="4.57284">
        <ele>715.84</ele>
        <time>2018-08-10T13:00:09Z</time>
      </trkpt>
      <trkpt lat="45.08605" lon="4.57271">
        <ele>713.92</ele>
        <time>2018-08-10T13:00:24Z</time>
      </trkpt>
      <trkpt lat="45.08604" lon="4.57258">
        <ele>713.92</ele>
        <time>2018-08-10T13:00:39Z</time>
      </trkpt>
      <trkpt lat="45.08607" lon="4.57237">
        <ele>711.51</ele>
        <time>2018-08-10T13:00:56Z</time>
      </trkpt>
      <trkpt lat="45.08604" lon="4.5722">
        <ele>708.63</ele>
        <time>2018-08-10T13:01:12Z</time>
      </trkpt>
      <trkpt lat="45.08604" lon="4.57215">
        <ele>708.15</ele>
        <time>2018-08-10T13:01:16Z</time>
      </trkpt>
      <trkpt lat="45.08602" lon="4.57199">
        <ele>707.19</ele>
        <time>2018-08-10T13:01:32Z</time>
      </trkpt>
      <trkpt lat="45.08601" lon="4.57187">
        <ele>705.26</ele>
        <time>2018-08-10T13:01:46Z</time>
      </trkpt>
      <trkpt lat="45.086" lon="4.57177">
        <ele>703.82</ele>
        <time>2018-08-10T13:01:59Z</time>
      </trkpt>
      <trkpt lat="45.086" lon="4.57169">
        <ele>703.34</ele>
        <time>2018-08-10T13:02:15Z</time>
      </trkpt>
      <trkpt lat="45.08602" lon="4.57166">
        <ele>702.86</ele>
        <time>2018-08-10T13:02:46Z</time>
      </trkpt>
      <trkpt lat="45.08602" lon="4.57155">
        <ele>701.42</ele>
        <time>2018-08-10T13:02:59Z</time>
      </trkpt>
      <trkpt lat="45.08605" lon="4.57141">
        <ele>699.5</ele>
        <time>2018-08-10T13:03:13Z</time>
      </trkpt>
      <trkpt lat="45.08606" lon="4.57127">
        <ele>697.57</ele>
        <time>2018-08-10T13:03:25Z</time>
      </trkpt>
      <trkpt lat="45.08609" lon="4.57112">
        <ele>695.65</ele>
        <time>2018-08-10T13:03:42Z</time>
      </trkpt>
      <trkpt lat="45.08611" lon="4.57096">
        <ele>693.73</ele>
        <time>2018-08-10T13:03:57Z</time>
      </trkpt>
      <trkpt lat="45.08613" lon="4.57083">
        <ele>691.81</ele>
        <time>2018-08-10T13:04:13Z</time>
      </trkpt>
      <trkpt lat="45.08615" lon="4.5707">
        <ele>689.88</ele>
        <time>2018-08-10T13:04:30Z</time>
      </trkpt>
      <trkpt lat="45.08618" lon="4.57052">
        <ele>687</ele>
        <time>2018-08-10T13:04:48Z</time>
      </trkpt>
      <trkpt lat="45.0862" lon="4.57036">
        <ele>684.6</ele>
        <time>2018-08-10T13:05:06Z</time>
      </trkpt>
      <trkpt lat="45.08617" lon="4.57019">
        <ele>682.67</ele>
        <time>2018-08-10T13:05:22Z</time>
      </trkpt>
      <trkpt lat="45.08616" lon="4.56998">
        <ele>680.27</ele>
        <time>2018-08-10T13:05:37Z</time>
      </trkpt>
      <trkpt lat="45.08616" lon="4.56979">
        <ele>677.39</ele>
        <time>2018-08-10T13:05:54Z</time>
      </trkpt>
      <trkpt lat="45.08617" lon="4.56973">
        <ele>677.39</ele>
        <time>2018-08-10T13:06:20Z</time>
      </trkpt>
      <trkpt lat="45.08617" lon="4.56968">
        <ele>678.83</ele>
        <time>2018-08-10T13:06:52Z</time>
      </trkpt>
      <trkpt lat="45.08617" lon="4.56967">
        <ele>677.39</ele>
        <time>2018-08-10T13:06:59Z</time>
      </trkpt>
      <trkpt lat="45.08617" lon="4.56965">
        <ele>676.91</ele>
        <time>2018-08-10T13:07:20Z</time>
      </trkpt>
      <trkpt lat="45.08615" lon="4.56956">
        <ele>676.42</ele>
        <time>2018-08-10T13:07:41Z</time>
      </trkpt>
      <trkpt lat="45.08614" lon="4.56942">
        <ele>674.98</ele>
        <time>2018-08-10T13:07:57Z</time>
      </trkpt>
      <trkpt lat="45.08615" lon="4.56925">
        <ele>673.54</ele>
        <time>2018-08-10T13:08:13Z</time>
      </trkpt>
      <trkpt lat="45.08613" lon="4.56914">
        <ele>671.62</ele>
        <time>2018-08-10T13:08:29Z</time>
      </trkpt>
      <trkpt lat="45.08611" lon="4.56896">
        <ele>669.7</ele>
        <time>2018-08-10T13:08:49Z</time>
      </trkpt>
      <trkpt lat="45.08609" lon="4.56882">
        <ele>667.77</ele>
        <time>2018-08-10T13:09:06Z</time>
      </trkpt>
      <trkpt lat="45.08611" lon="4.56879">
        <ele>667.77</ele>
        <time>2018-08-10T13:09:32Z</time>
      </trkpt>
      <trkpt lat="45.08609" lon="4.56873">
        <ele>667.77</ele>
        <time>2018-08-10T13:09:43Z</time>
      </trkpt>
      <trkpt lat="45.0861" lon="4.56869">
        <ele>667.29</ele>
        <time>2018-08-10T13:10:02Z</time>
      </trkpt>
      <trkpt lat="45.08608" lon="4.56867">
        <ele>667.29</ele>
        <time>2018-08-10T13:10:28Z</time>
      </trkpt>
      <trkpt lat="45.08606" lon="4.56867">
        <ele>667.29</ele>
        <time>2018-08-10T13:10:52Z</time>
      </trkpt>
      <trkpt lat="45.08602" lon="4.5687">
        <ele>669.7</ele>
        <time>2018-08-10T13:11:05Z</time>
      </trkpt>
      <trkpt lat="45.086" lon="4.56869">
        <ele>670.18</ele>
        <time>2018-08-10T13:11:24Z</time>
      </trkpt>
      <trkpt lat="45.08602" lon="4.5687">
        <ele>671.14</ele>
        <time>2018-08-10T13:11:39Z</time>
      </trkpt>
      <trkpt lat="45.08595" lon="4.56871">
        <ele>671.14</ele>
        <time>2018-08-10T13:11:55Z</time>
      </trkpt>
      <trkpt lat="45.08596" lon="4.56881">
        <ele>671.62</ele>
        <time>2018-08-10T13:12:11Z</time>
      </trkpt>
      <trkpt lat="45.08594" lon="4.5689">
        <ele>672.58</ele>
        <time>2018-08-10T13:12:24Z</time>
      </trkpt>
      <trkpt lat="45.08591" lon="4.56898">
        <ele>673.54</ele>
        <time>2018-08-10T13:12:36Z</time>
      </trkpt>
      <trkpt lat="45.0859" lon="4.56902">
        <ele>674.02</ele>
        <time>2018-08-10T13:12:55Z</time>
      </trkpt>
      <trkpt lat="45.08585" lon="4.56913">
        <ele>674.5</ele>
        <time>2018-08-10T13:13:09Z</time>
      </trkpt>
      <trkpt lat="45.08579" lon="4.56931">
        <ele>674.5</ele>
        <time>2018-08-10T13:13:29Z</time>
      </trkpt>
      <trkpt lat="45.08567" lon="4.56951">
        <ele>674.5</ele>
        <time>2018-08-10T13:13:46Z</time>
      </trkpt>
      <trkpt lat="45.08549" lon="4.56964">
        <ele>674.98</ele>
        <time>2018-08-10T13:14:03Z</time>
      </trkpt>
      <trkpt lat="45.08525" lon="4.56978">
        <ele>674.98</ele>
        <time>2018-08-10T13:14:19Z</time>
      </trkpt>
      <trkpt lat="45.08512" lon="4.56981">
        <ele>674.98</ele>
        <time>2018-08-10T13:14:32Z</time>
      </trkpt>
      <trkpt lat="45.08494" lon="4.56979">
        <ele>675.46</ele>
        <time>2018-08-10T13:14:48Z</time>
      </trkpt>
      <trkpt lat="45.0848" lon="4.56979">
        <ele>676.42</ele>
        <time>2018-08-10T13:15:02Z</time>
      </trkpt>
      <trkpt lat="45.08464" lon="4.56982">
        <ele>677.87</ele>
        <time>2018-08-10T13:15:20Z</time>
      </trkpt>
      <trkpt lat="45.08458" lon="4.5698">
        <ele>679.31</ele>
        <time>2018-08-10T13:15:39Z</time>
      </trkpt>
      <trkpt lat="45.08448" lon="4.56981">
        <ele>681.23</ele>
        <time>2018-08-10T13:15:55Z</time>
      </trkpt>
      <trkpt lat="45.08435" lon="4.5698">
        <ele>682.67</ele>
        <time>2018-08-10T13:16:10Z</time>
      </trkpt>
      <trkpt lat="45.08424" lon="4.56971">
        <ele>683.15</ele>
        <time>2018-08-10T13:16:24Z</time>
      </trkpt>
      <trkpt lat="45.08417" lon="4.56958">
        <ele>683.63</ele>
        <time>2018-08-10T13:16:38Z</time>
      </trkpt>
      <trkpt lat="45.08415" lon="4.56951">
        <ele>684.6</ele>
        <time>2018-08-10T13:16:50Z</time>
      </trkpt>
      <trkpt lat="45.08405" lon="4.56944">
        <ele>685.08</ele>
        <time>2018-08-10T13:17:03Z</time>
      </trkpt>
      <trkpt lat="45.08392" lon="4.56943">
        <ele>686.04</ele>
        <time>2018-08-10T13:17:20Z</time>
      </trkpt>
      <trkpt lat="45.08382" lon="4.56945">
        <ele>687.96</ele>
        <time>2018-08-10T13:17:32Z</time>
      </trkpt>
      <trkpt lat="45.08371" lon="4.56939">
        <ele>688.92</ele>
        <time>2018-08-10T13:17:45Z</time>
      </trkpt>
      <trkpt lat="45.0836" lon="4.56937">
        <ele>689.4</ele>
        <time>2018-08-10T13:18:01Z</time>
      </trkpt>
      <trkpt lat="45.08352" lon="4.56938">
        <ele>690.36</ele>
        <time>2018-08-10T13:18:16Z</time>
      </trkpt>
      <trkpt lat="45.08343" lon="4.56948">
        <ele>690.84</ele>
        <time>2018-08-10T13:18:30Z</time>
      </trkpt>
      <trkpt lat="45.08322" lon="4.56959">
        <ele>692.29</ele>
        <time>2018-08-10T13:18:48Z</time>
      </trkpt>
      <trkpt lat="45.08307" lon="4.5696">
        <ele>693.25</ele>
        <time>2018-08-10T13:19:06Z</time>
      </trkpt>
      <trkpt lat="45.08301" lon="4.56959">
        <ele>693.25</ele>
        <time>2018-08-10T13:19:30Z</time>
      </trkpt>
      <trkpt lat="45.08289" lon="4.5696">
        <ele>693.73</ele>
        <time>2018-08-10T13:19:42Z</time>
      </trkpt>
      <trkpt lat="45.08277" lon="4.56954">
        <ele>693.73</ele>
        <time>2018-08-10T13:19:55Z</time>
      </trkpt>
      <trkpt lat="45.08262" lon="4.56942">
        <ele>696.13</ele>
        <time>2018-08-10T13:20:12Z</time>
      </trkpt>
      <trkpt lat="45.08249" lon="4.56926">
        <ele>696.61</ele>
        <time>2018-08-10T13:20:29Z</time>
      </trkpt>
      <trkpt lat="45.08239" lon="4.56903">
        <ele>695.17</ele>
        <time>2018-08-10T13:20:47Z</time>
      </trkpt>
      <trkpt lat="45.08236" lon="4.56892">
        <ele>694.21</ele>
        <time>2018-08-10T13:21:03Z</time>
      </trkpt>
      <trkpt lat="45.08232" lon="4.56884">
        <ele>694.21</ele>
        <time>2018-08-10T13:21:23Z</time>
      </trkpt>
      <trkpt lat="45.08224" lon="4.56861">
        <ele>693.73</ele>
        <time>2018-08-10T13:21:41Z</time>
      </trkpt>
      <trkpt lat="45.08218" lon="4.56841">
        <ele>693.25</ele>
        <time>2018-08-10T13:21:56Z</time>
      </trkpt>
      <trkpt lat="45.08216" lon="4.5683">
        <ele>693.25</ele>
        <time>2018-08-10T13:22:18Z</time>
      </trkpt>
      <trkpt lat="45.08209" lon="4.56809">
        <ele>692.77</ele>
        <time>2018-08-10T13:22:35Z</time>
      </trkpt>
      <trkpt lat="45.08198" lon="4.56788">
        <ele>693.73</ele>
        <time>2018-08-10T13:22:52Z</time>
      </trkpt>
      <trkpt lat="45.08185" lon="4.56764">
        <ele>693.73</ele>
        <time>2018-08-10T13:23:10Z</time>
      </trkpt>
      <trkpt lat="45.08179" lon="4.56744">
        <ele>693.73</ele>
        <time>2018-08-10T13:23:28Z</time>
      </trkpt>
      <trkpt lat="45.08169" lon="4.5672">
        <ele>693.73</ele>
        <time>2018-08-10T13:23:45Z</time>
      </trkpt>
      <trkpt lat="45.08157" lon="4.56695">
        <ele>695.17</ele>
        <time>2018-08-10T13:24:05Z</time>
      </trkpt>
      <trkpt lat="45.0815" lon="4.56687">
        <ele>695.17</ele>
        <time>2018-08-10T13:24:14Z</time>
      </trkpt>
      <trkpt lat="45.08145" lon="4.56681">
        <ele>695.65</ele>
        <time>2018-08-10T13:24:21Z</time>
      </trkpt>
      <trkpt lat="45.08129" lon="4.56668">
        <ele>696.13</ele>
        <time>2018-08-10T13:24:40Z</time>
      </trkpt>
      <trkpt lat="45.08122" lon="4.56664">
        <ele>697.09</ele>
        <time>2018-08-10T13:24:48Z</time>
      </trkpt>
      <trkpt lat="45.08107" lon="4.56655">
        <ele>697.57</ele>
        <time>2018-08-10T13:25:04Z</time>
      </trkpt>
      <trkpt lat="45.0809" lon="4.56646">
        <ele>698.05</ele>
        <time>2018-08-10T13:25:20Z</time>
      </trkpt>
      <trkpt lat="45.08085" lon="4.56643">
        <ele>698.05</ele>
        <time>2018-08-10T13:25:28Z</time>
      </trkpt>
      <trkpt lat="45.08068" lon="4.56628">
        <ele>699.5</ele>
        <time>2018-08-10T13:25:45Z</time>
      </trkpt>
      <trkpt lat="45.08054" lon="4.56616">
        <ele>701.9</ele>
        <time>2018-08-10T13:26:02Z</time>
      </trkpt>
      <trkpt lat="45.08054" lon="4.56609">
        <ele>701.9</ele>
        <time>2018-08-10T13:26:13Z</time>
      </trkpt>
      <trkpt lat="45.08053" lon="4.5661">
        <ele>702.38</ele>
        <time>2018-08-10T13:26:16Z</time>
      </trkpt>
      <trkpt lat="45.0805" lon="4.56612">
        <ele>701.9</ele>
        <time>2018-08-10T13:26:19Z</time>
      </trkpt>
      <trkpt lat="45.08038" lon="4.56609">
        <ele>701.9</ele>
        <time>2018-08-10T13:26:32Z</time>
      </trkpt>
      <trkpt lat="45.08028" lon="4.56601">
        <ele>703.34</ele>
        <time>2018-08-10T13:26:46Z</time>
      </trkpt>
      <trkpt lat="45.08013" lon="4.56597">
        <ele>703.82</ele>
        <time>2018-08-10T13:27:01Z</time>
      </trkpt>
      <trkpt lat="45.07997" lon="4.5659">
        <ele>704.3</ele>
        <time>2018-08-10T13:27:15Z</time>
      </trkpt>
      <trkpt lat="45.0798" lon="4.56584">
        <ele>704.3</ele>
        <time>2018-08-10T13:27:31Z</time>
      </trkpt>
      <trkpt lat="45.07961" lon="4.56578">
        <ele>702.38</ele>
        <time>2018-08-10T13:27:49Z</time>
      </trkpt>
      <trkpt lat="45.0795" lon="4.56576">
        <ele>700.94</ele>
        <time>2018-08-10T13:28:03Z</time>
      </trkpt>
      <trkpt lat="45.07933" lon="4.56579">
        <ele>702.38</ele>
        <time>2018-08-10T13:28:20Z</time>
      </trkpt>
      <trkpt lat="45.07918" lon="4.56577">
        <ele>702.86</ele>
        <time>2018-08-10T13:28:36Z</time>
      </trkpt>
      <trkpt lat="45.07907" lon="4.56574">
        <ele>702.86</ele>
        <time>2018-08-10T13:28:47Z</time>
      </trkpt>
      <trkpt lat="45.07893" lon="4.56565">
        <ele>701.42</ele>
        <time>2018-08-10T13:29:02Z</time>
      </trkpt>
      <trkpt lat="45.07892" lon="4.56556">
        <ele>701.42</ele>
        <time>2018-08-10T13:29:16Z</time>
      </trkpt>
      <trkpt lat="45.07896" lon="4.56553">
        <ele>702.86</ele>
        <time>2018-08-10T13:29:22Z</time>
      </trkpt>
    </trkseg>
  </trk>
</gpx>